createdAt,value
2019-06-08T00:00:01.990Z,995.50
2019-06-08T00:01:03.512Z,995.58
2019-06-08T00:02:01.802Z,995.65
2019-06-08T00:03:01.954Z,995.62
2019-06-08T00:04:01.504Z,995.64
2019-06-08T00:05:01.604Z,995.56
2019-06-08T00:06:01.449Z,995.64
2019-06-08T00:07:01.686Z,995.81
2019-06-08T00:08:01.552Z,995.62
2019-06-08T00:09:01.505Z,995.71
2019-06-08T00:10:01.557Z,995.76
2019-06-08T00:11:01.462Z,995.54
2019-06-08T00:12:01.434Z,995.59
2019-06-08T00:13:01.454Z,995.66
2019-06-08T00:14:01.418Z,995.63
2019-06-08T00:15:01.348Z,995.57
2019-06-08T00:16:01.384Z,995.61
2019-06-08T00:17:01.467Z,995.80
2019-06-08T00:18:01.348Z,995.61
2019-06-08T00:19:01.378Z,995.61
2019-06-08T00:20:01.282Z,995.56
2019-06-08T00:21:01.254Z,995.73
2019-06-08T00:22:01.394Z,995.65
2019-06-08T00:23:01.255Z,995.68
2019-06-08T00:24:01.277Z,995.69
2019-06-08T00:25:01.299Z,995.68
2019-06-08T00:26:01.199Z,995.67
2019-06-08T00:27:01.211Z,995.70
2019-06-08T00:28:01.185Z,995.78
2019-06-08T00:29:01.170Z,995.72
2019-06-08T00:30:01.270Z,995.80
2019-06-08T00:31:01.149Z,995.74
2019-06-08T00:32:01.133Z,995.76
2019-06-08T00:33:01.144Z,995.65
2019-06-08T00:34:01.223Z,995.72
2019-06-08T00:35:01.169Z,995.60
2019-06-08T00:36:01.110Z,995.67
2019-06-08T00:37:02.132Z,995.69
2019-06-08T00:38:01.200Z,995.66
2019-06-08T00:39:01.408Z,995.77
2019-06-08T00:40:01.057Z,995.78
2019-06-08T00:41:01.045Z,995.79
2019-06-08T00:42:02.405Z,995.87
2019-06-08T00:43:01.017Z,995.90
2019-06-08T00:44:01.017Z,995.88
2019-06-08T00:45:00.988Z,995.76
2019-06-08T00:46:00.984Z,995.95
2019-06-08T00:47:00.986Z,996.01
2019-06-08T00:48:00.953Z,995.87
2019-06-08T00:49:00.966Z,995.84
2019-06-08T00:50:00.955Z,995.91
2019-06-08T00:51:01.082Z,995.86
2019-06-08T00:52:00.917Z,995.81
2019-06-08T00:53:00.914Z,995.81
2019-06-08T00:54:00.916Z,995.84
2019-06-08T00:55:01.027Z,995.93
2019-06-08T00:56:00.863Z,995.78
2019-06-08T00:57:00.994Z,995.79
2019-06-08T00:58:00.885Z,995.85
2019-06-08T00:59:01.526Z,995.82
2019-06-08T01:00:09.753Z,995.86
2019-06-08T01:01:01.940Z,995.91
2019-06-08T01:02:00.829Z,995.86
2019-06-08T01:03:01.542Z,995.86
2019-06-08T01:04:00.818Z,995.91
2019-06-08T01:05:00.795Z,995.93
2019-06-08T01:06:01.365Z,995.82
2019-06-08T01:07:00.913Z,995.89
2019-06-08T01:08:01.589Z,995.93
2019-06-08T01:09:00.763Z,995.88
2019-06-08T01:10:00.702Z,995.90
2019-06-08T01:11:00.768Z,995.90
2019-06-08T01:12:01.686Z,995.88
2019-06-08T01:13:02.754Z,995.96
2019-06-08T01:14:00.814Z,995.90
2019-06-08T01:15:04.124Z,995.89
2019-06-08T01:16:00.763Z,995.99
2019-06-08T01:17:00.725Z,995.96
2019-06-08T01:18:03.723Z,996.00
2019-06-08T01:19:00.627Z,996.03
2019-06-08T01:20:00.757Z,995.97
2019-06-08T01:21:00.650Z,996.00
2019-06-08T01:22:00.573Z,995.96
2019-06-08T01:23:00.598Z,995.95
2019-06-08T01:24:00.592Z,995.91
2019-06-08T01:25:00.572Z,996.03
2019-06-08T01:26:00.546Z,996.01
2019-06-08T01:27:00.658Z,996.00
2019-06-08T01:28:01.463Z,996.07
2019-06-08T01:29:00.526Z,996.04
2019-06-08T01:30:00.543Z,996.07
2019-06-08T01:31:00.494Z,996.02
2019-06-08T01:32:00.483Z,996.10
2019-06-08T01:33:00.474Z,996.09
2019-06-08T01:34:00.503Z,996.02
2019-06-08T01:35:00.433Z,996.04
2019-06-08T01:36:00.476Z,996.04
2019-06-08T01:37:00.415Z,996.11
2019-06-08T01:38:00.429Z,996.08
2019-06-08T01:39:00.392Z,996.14
2019-06-08T01:40:00.446Z,996.06
2019-06-08T01:41:00.436Z,996.11
2019-06-08T01:42:01.208Z,996.04
2019-06-08T01:43:00.398Z,996.04
2019-06-08T01:44:01.089Z,996.13
2019-06-08T01:45:00.369Z,996.15
2019-06-08T01:46:00.336Z,996.04
2019-06-08T01:47:00.324Z,995.97
2019-06-08T01:48:00.711Z,996.02
2019-06-08T01:49:01.188Z,996.08
2019-06-08T01:50:00.274Z,996.04
2019-06-08T01:51:00.290Z,996.14
2019-06-08T01:52:01.145Z,996.04
2019-06-08T01:53:00.379Z,996.13
2019-06-08T01:54:00.330Z,996.13
2019-06-08T01:55:00.226Z,996.12
2019-06-08T01:56:00.222Z,996.07
2019-06-08T01:57:00.342Z,996.07
2019-06-08T01:58:01.077Z,996.19
2019-06-08T01:59:00.171Z,996.21
2019-06-08T02:00:00.212Z,996.20
2019-06-08T02:01:00.166Z,996.11
2019-06-08T02:02:00.145Z,996.13
2019-06-08T02:03:00.163Z,996.18
2019-06-08T02:04:00.123Z,996.12
2019-06-08T02:05:01.086Z,996.24
2019-06-08T02:06:00.103Z,996.22
2019-06-08T02:07:00.154Z,996.13
2019-06-08T02:08:00.083Z,996.22
2019-06-08T02:09:00.492Z,996.11
2019-06-08T02:10:00.061Z,996.22
2019-06-08T02:11:00.043Z,996.24
2019-06-08T02:12:00.045Z,996.14
2019-06-08T02:13:00.732Z,996.19
2019-06-08T02:14:00.063Z,996.24
2019-06-08T02:15:00.052Z,996.18
2019-06-08T02:16:00.003Z,996.18
2019-06-08T02:16:59.994Z,996.25
2019-06-08T02:18:00.171Z,996.25
2019-06-08T02:18:59.964Z,996.23
2019-06-08T02:19:59.957Z,996.21
2019-06-08T02:21:01.059Z,996.21
2019-06-08T02:22:02.029Z,996.39
2019-06-08T02:23:00.190Z,996.34
2019-06-08T02:24:00.641Z,996.19
2019-06-08T02:24:59.940Z,996.29
2019-06-08T02:25:59.887Z,996.18
2019-06-08T02:27:00.011Z,996.27
2019-06-08T02:27:59.891Z,996.24
2019-06-08T02:28:59.855Z,996.32
2019-06-08T02:30:00.335Z,996.30
2019-06-08T02:30:59.834Z,996.33
2019-06-08T02:32:00.386Z,996.35
2019-06-08T02:32:59.836Z,996.29
2019-06-08T02:33:59.833Z,996.28
2019-06-08T02:34:59.976Z,996.29
2019-06-08T02:35:59.775Z,996.35
2019-06-08T02:37:00.331Z,996.34
2019-06-08T02:37:59.822Z,996.34
2019-06-08T02:39:01.185Z,996.41
2019-06-08T02:39:59.792Z,996.33
2019-06-08T02:40:59.744Z,996.32
2019-06-08T02:42:22.519Z,996.44
2019-06-08T02:42:59.923Z,996.44
2019-06-08T02:43:59.720Z,996.48
2019-06-08T02:45:00.569Z,996.41
2019-06-08T02:45:59.665Z,996.58
2019-06-08T02:46:59.664Z,996.40
2019-06-08T02:47:59.830Z,996.49
2019-06-08T02:49:04.527Z,996.54
2019-06-08T02:49:59.734Z,996.43
2019-06-08T02:50:59.728Z,996.46
2019-06-08T02:51:59.689Z,996.43
2019-06-08T02:52:59.713Z,996.47
2019-06-08T02:53:59.609Z,996.56
2019-06-08T02:54:59.697Z,996.65
2019-06-08T02:55:59.686Z,996.68
2019-06-08T02:56:59.663Z,996.57
2019-06-08T02:57:59.547Z,996.62
2019-06-08T02:58:59.583Z,996.71
2019-06-08T02:59:59.752Z,996.71
2019-06-08T03:00:59.609Z,996.74
2019-06-08T03:01:59.619Z,996.69
2019-06-08T03:02:59.642Z,996.76
2019-06-08T03:03:59.603Z,996.68
2019-06-08T03:04:59.546Z,996.68
2019-06-08T03:05:59.600Z,996.77
2019-06-08T03:06:59.525Z,996.70
2019-06-08T03:07:59.507Z,996.71
2019-06-08T03:08:59.467Z,996.71
2019-06-08T03:09:59.501Z,996.71
2019-06-08T03:10:59.454Z,996.78
2019-06-08T03:11:59.874Z,996.87
2019-06-08T03:12:59.495Z,996.85
2019-06-08T03:13:59.823Z,996.82
2019-06-08T03:14:59.408Z,996.81
2019-06-08T03:15:59.421Z,996.93
2019-06-08T03:16:59.506Z,996.83
2019-06-08T03:17:59.406Z,996.89
2019-06-08T03:18:59.445Z,996.82
2019-06-08T03:19:59.470Z,996.83
2019-06-08T03:20:59.328Z,996.94
2019-06-08T03:21:59.303Z,996.98
2019-06-08T03:22:59.392Z,996.90
2019-06-08T03:23:59.366Z,996.96
2019-06-08T03:24:59.367Z,996.91
2019-06-08T03:25:59.476Z,996.88
2019-06-08T03:26:59.291Z,996.88
2019-06-08T03:27:59.288Z,997.07
2019-06-08T03:28:59.286Z,996.97
2019-06-08T03:29:59.220Z,996.97
2019-06-08T03:30:59.249Z,996.97
2019-06-08T03:31:59.232Z,996.95
2019-06-08T03:32:59.333Z,996.95
2019-06-08T03:33:59.268Z,997.11
2019-06-08T03:34:59.284Z,997.19
2019-06-08T03:35:59.177Z,997.03
2019-06-08T03:36:59.240Z,996.90
2019-06-08T03:37:59.169Z,997.14
2019-06-08T03:38:59.205Z,996.98
2019-06-08T03:39:59.102Z,997.21
2019-06-08T03:40:59.128Z,997.18
2019-06-08T03:41:59.244Z,997.25
2019-06-08T03:43:01.439Z,997.20
2019-06-08T03:43:59.108Z,997.27
2019-06-08T03:44:59.164Z,997.26
2019-06-08T03:45:59.213Z,997.34
2019-06-08T03:46:59.053Z,997.18
2019-06-08T03:47:59.020Z,997.21
2019-06-08T03:48:59.015Z,997.22
2019-06-08T03:49:59.015Z,997.29
2019-06-08T03:50:59.095Z,997.25
2019-06-08T03:51:59.030Z,997.26
2019-06-08T03:52:58.946Z,997.18
2019-06-08T03:53:58.965Z,997.30
2019-06-08T03:54:58.972Z,997.39
2019-06-08T03:55:58.926Z,997.29
2019-06-08T03:56:58.984Z,997.41
2019-06-08T03:57:58.966Z,997.37
2019-06-08T03:58:58.961Z,997.29
2019-06-08T03:59:58.947Z,997.43
2019-06-08T04:00:58.926Z,997.39
2019-06-08T04:01:58.991Z,997.38
2019-06-08T04:02:58.988Z,997.47
2019-06-08T04:04:00.129Z,997.49
2019-06-08T04:04:58.908Z,997.43
2019-06-08T04:05:58.898Z,997.40
2019-06-08T04:06:58.933Z,997.59
2019-06-08T04:07:58.849Z,997.49
2019-06-08T04:08:58.981Z,997.44
2019-06-08T04:09:58.817Z,997.58
2019-06-08T04:10:58.750Z,997.55
2019-06-08T04:11:58.824Z,997.62
2019-06-08T04:12:58.780Z,997.61
2019-06-08T04:13:58.763Z,997.52
2019-06-08T04:14:58.752Z,997.56
2019-06-08T04:15:58.748Z,997.50
2019-06-08T04:16:58.744Z,997.46
2019-06-08T04:17:58.729Z,997.54
2019-06-08T04:18:58.694Z,997.40
2019-06-08T04:20:10.174Z,997.42
2019-06-08T04:20:59.798Z,997.50
2019-06-08T04:21:58.724Z,997.47
2019-06-08T04:22:58.699Z,997.64
2019-06-08T04:23:58.645Z,997.55
2019-06-08T04:24:58.740Z,997.50
2019-06-08T04:25:58.818Z,997.50
2019-06-08T04:26:58.760Z,997.48
2019-06-08T04:27:58.581Z,997.58
2019-06-08T04:28:58.629Z,997.56
2019-06-08T04:29:58.578Z,997.58
2019-06-08T04:30:58.581Z,997.60
2019-06-08T04:31:58.565Z,997.61
2019-06-08T04:32:58.629Z,997.59
2019-06-08T04:33:58.633Z,997.64
2019-06-08T04:34:58.496Z,997.59
2019-06-08T04:35:58.640Z,997.59
2019-06-08T04:36:58.487Z,997.74
2019-06-08T04:37:58.593Z,997.64
2019-06-08T04:38:58.653Z,997.77
2019-06-08T04:39:58.511Z,997.75
2019-06-08T04:40:58.516Z,997.81
2019-06-08T04:41:58.451Z,997.69
2019-06-08T04:42:58.498Z,997.75
2019-06-08T04:43:58.407Z,997.76
2019-06-08T04:44:58.663Z,997.87
2019-06-08T04:45:58.585Z,997.83
2019-06-08T04:46:58.431Z,997.89
2019-06-08T04:47:58.457Z,997.87
2019-06-08T04:48:58.368Z,997.90
2019-06-08T04:49:58.352Z,997.91
2019-06-08T04:50:58.428Z,997.90
2019-06-08T04:51:58.374Z,997.86
2019-06-08T04:52:58.371Z,998.03
2019-06-08T04:53:58.338Z,997.99
2019-06-08T04:54:58.485Z,997.92
2019-06-08T04:55:58.358Z,997.90
2019-06-08T04:56:58.346Z,997.98
2019-06-08T04:57:58.288Z,997.95
2019-06-08T04:58:58.271Z,998.09
2019-06-08T04:59:58.218Z,998.11
2019-06-08T05:00:58.357Z,998.06
2019-06-08T05:01:58.243Z,998.16
2019-06-08T05:02:58.320Z,997.93
2019-06-08T05:03:58.210Z,998.09
2019-06-08T05:04:58.245Z,998.06
2019-06-08T05:05:58.183Z,998.15
2019-06-08T05:06:58.240Z,998.12
2019-06-08T05:07:58.242Z,998.14
2019-06-08T05:08:58.169Z,998.10
2019-06-08T05:09:58.702Z,998.11
2019-06-08T05:10:58.351Z,998.16
2019-06-08T05:11:58.140Z,998.18
2019-06-08T05:12:58.101Z,998.15
2019-06-08T05:13:58.122Z,998.21
2019-06-08T05:14:58.105Z,998.26
2019-06-08T05:15:58.071Z,998.27
2019-06-08T05:16:58.034Z,998.19
2019-06-08T05:17:58.088Z,998.18
2019-06-08T05:18:58.236Z,998.34
2019-06-08T05:19:58.099Z,998.27
2019-06-08T05:20:58.004Z,998.26
2019-06-08T05:21:58.026Z,998.38
2019-06-08T05:22:58.051Z,998.36
2019-06-08T05:23:59.060Z,998.37
2019-06-08T05:24:58.068Z,998.31
2019-06-08T05:25:58.032Z,998.28
2019-06-08T05:26:57.990Z,998.41
2019-06-08T05:27:58.011Z,998.31
2019-06-08T05:28:57.961Z,998.41
2019-06-08T05:29:57.982Z,998.41
2019-06-08T05:30:58.012Z,998.30
2019-06-08T05:31:57.949Z,998.46
2019-06-08T05:32:57.941Z,998.50
2019-06-08T05:33:57.958Z,998.35
2019-06-08T05:34:57.907Z,998.35
2019-06-08T05:35:57.885Z,998.44
2019-06-08T05:36:58.028Z,998.43
2019-06-08T05:37:57.872Z,998.30
2019-06-08T05:38:57.940Z,998.52
2019-06-08T05:39:57.874Z,998.42
2019-06-08T05:40:57.827Z,998.49
2019-06-08T05:41:57.854Z,998.44
2019-06-08T05:42:57.993Z,998.50
2019-06-08T05:43:57.761Z,998.49
2019-06-08T05:44:57.838Z,998.45
2019-06-08T05:45:57.761Z,998.42
2019-06-08T05:46:57.745Z,998.37
2019-06-08T05:47:57.761Z,998.49
2019-06-08T05:48:57.849Z,998.44
2019-06-08T05:49:57.751Z,998.57
2019-06-08T05:51:03.886Z,998.67
2019-06-08T05:51:58.661Z,998.61
2019-06-08T05:52:57.685Z,998.58
2019-06-08T05:53:57.640Z,998.51
2019-06-08T05:54:57.651Z,998.62
2019-06-08T05:55:57.785Z,998.78
2019-06-08T05:56:57.755Z,998.59
2019-06-08T05:57:57.627Z,998.66
2019-06-08T05:58:57.646Z,998.73
2019-06-08T05:59:57.650Z,998.56
2019-06-08T06:00:57.755Z,998.65
2019-06-08T06:01:57.597Z,998.71
2019-06-08T06:02:57.741Z,998.73
2019-06-08T06:03:57.550Z,998.69
2019-06-08T06:04:57.685Z,998.89
2019-06-08T06:05:57.679Z,998.79
2019-06-08T06:06:57.759Z,998.75
2019-06-08T06:07:57.574Z,998.85
2019-06-08T06:08:57.654Z,998.83
2019-06-08T06:09:57.534Z,998.96
2019-06-08T06:10:57.560Z,998.88
2019-06-08T06:11:57.478Z,998.83
2019-06-08T06:12:57.530Z,998.79
2019-06-08T06:13:57.473Z,998.89
2019-06-08T06:14:57.533Z,998.97
2019-06-08T06:15:57.515Z,998.95
2019-06-08T06:16:57.473Z,998.76
2019-06-08T06:17:57.441Z,998.84
2019-06-08T06:18:57.549Z,998.89
2019-06-08T06:19:57.477Z,998.84
2019-06-08T06:21:10.552Z,998.91
2019-06-08T06:21:58.335Z,998.90
2019-06-08T06:22:58.587Z,998.89
2019-06-08T06:23:57.311Z,998.98
2019-06-08T06:24:57.461Z,999.16
2019-06-08T06:25:57.323Z,998.96
2019-06-08T06:26:57.299Z,998.91
2019-06-08T06:27:58.239Z,998.95
2019-06-08T06:28:57.348Z,998.86
2019-06-08T06:29:57.311Z,999.02
2019-06-08T06:30:57.298Z,998.95
2019-06-08T06:31:57.202Z,998.98
2019-06-08T06:32:57.868Z,999.05
2019-06-08T06:33:57.389Z,999.00
2019-06-08T06:34:57.292Z,999.03
2019-06-08T06:35:57.332Z,999.11
2019-06-08T06:36:57.564Z,999.05
2019-06-08T06:37:57.179Z,999.03
2019-06-08T06:38:57.216Z,999.09
2019-06-08T06:39:57.401Z,999.10
2019-06-08T06:40:57.307Z,999.29
2019-06-08T06:41:57.190Z,999.10
2019-06-08T06:42:57.113Z,999.14
2019-06-08T06:43:57.200Z,999.11
2019-06-08T06:44:57.153Z,999.20
2019-06-08T06:45:57.270Z,999.19
2019-06-08T06:46:57.202Z,999.31
2019-06-08T06:47:57.119Z,999.19
2019-06-08T06:48:57.433Z,999.27
2019-06-08T06:49:57.061Z,999.24
2019-06-08T06:50:57.013Z,999.39
2019-06-08T06:51:57.040Z,999.34
2019-06-08T06:52:57.057Z,999.42
2019-06-08T06:53:57.156Z,999.43
2019-06-08T06:54:56.985Z,999.46
2019-06-08T06:55:57.485Z,999.36
2019-06-08T06:56:57.016Z,999.45
2019-06-08T06:57:56.984Z,999.34
2019-06-08T06:58:56.998Z,999.47
2019-06-08T06:59:57.236Z,999.62
2019-06-08T07:00:56.909Z,999.62
2019-06-08T07:01:57.608Z,999.70
2019-06-08T07:02:56.898Z,999.55
2019-06-08T07:03:57.073Z,999.60
2019-06-08T07:04:56.896Z,999.72
2019-06-08T07:05:56.972Z,999.74
2019-06-08T07:06:56.896Z,999.76
2019-06-08T07:07:56.884Z,999.83
2019-06-08T07:08:56.843Z,999.75
2019-06-08T07:09:56.875Z,999.72
2019-06-08T07:10:56.861Z,999.73
2019-06-08T07:11:56.863Z,999.74
2019-06-08T07:12:56.938Z,999.80
2019-06-08T07:13:56.789Z,1000.07
2019-06-08T07:14:56.853Z,999.75
2019-06-08T07:15:58.214Z,999.95
2019-06-08T07:16:58.227Z,999.88
2019-06-08T07:17:56.848Z,999.83
2019-06-08T07:18:58.787Z,999.87
2019-06-08T07:19:56.824Z,999.82
2019-06-08T07:20:56.717Z,999.94
2019-06-08T07:21:56.832Z,999.94
2019-06-08T07:22:56.696Z,999.93
2019-06-08T07:23:56.666Z,999.83
2019-06-08T07:24:56.699Z,999.97
2019-06-08T07:25:56.772Z,1000.09
2019-06-08T07:26:56.689Z,1000.14
2019-06-08T07:27:56.776Z,1000.18
2019-06-08T07:28:56.809Z,1000.21
2019-06-08T07:29:56.863Z,1000.20
2019-06-08T07:30:56.580Z,1000.06
2019-06-08T07:31:56.679Z,1000.05
2019-06-08T07:32:56.753Z,1000.06
2019-06-08T07:33:56.592Z,1000.16
2019-06-08T07:34:56.619Z,1000.11
2019-06-08T07:35:56.674Z,1000.23
2019-06-08T07:36:56.737Z,1000.20
2019-06-08T07:37:56.910Z,1000.20
2019-06-08T07:38:56.635Z,1000.13
2019-06-08T07:39:56.564Z,1000.18
2019-06-08T07:40:59.629Z,1000.28
2019-06-08T07:41:56.569Z,1000.24
2019-06-08T07:42:57.241Z,1000.20
2019-06-08T07:43:56.616Z,1000.08
2019-06-08T07:44:56.531Z,1000.25
2019-06-08T07:45:56.438Z,1000.24
2019-06-08T07:46:56.423Z,1000.32
2019-06-08T07:47:56.505Z,1000.18
2019-06-08T07:48:58.525Z,1000.23
2019-06-08T07:49:56.359Z,1000.25
2019-06-08T07:50:56.559Z,1000.27
2019-06-08T07:52:06.696Z,1000.17
2019-06-08T07:52:58.767Z,1000.37
2019-06-08T07:53:56.543Z,1000.32
2019-06-08T07:54:57.072Z,1000.40
2019-06-08T07:55:56.427Z,1000.28
2019-06-08T07:56:57.088Z,1000.34
2019-06-08T07:57:56.459Z,1000.29
2019-06-08T07:58:57.167Z,1000.28
2019-06-08T08:00:00.095Z,1000.28
2019-06-08T08:01:03.664Z,1000.36
2019-06-08T08:01:58.334Z,1000.41
2019-06-08T08:02:56.347Z,1000.33
2019-06-08T08:03:58.433Z,1000.33
2019-06-08T08:04:56.730Z,1000.35
2019-06-08T08:05:56.738Z,1000.49
2019-06-08T08:06:56.773Z,1000.48
2019-06-08T08:07:56.918Z,1000.40
2019-06-08T08:08:56.836Z,1000.44
2019-06-08T08:09:56.982Z,1000.39
2019-06-08T08:10:56.698Z,1000.52
2019-06-08T08:11:57.157Z,1000.45
2019-06-08T08:12:56.828Z,1000.52
2019-06-08T08:13:57.444Z,1000.39
2019-06-08T08:14:57.871Z,1000.60
2019-06-08T08:15:58.611Z,1000.65
2019-06-08T08:16:57.193Z,1000.58
2019-06-08T08:17:57.562Z,1000.63
2019-06-08T08:18:57.619Z,1000.46
2019-06-08T08:19:57.280Z,1000.55
2019-06-08T08:20:59.217Z,1000.60
2019-06-08T08:22:00.105Z,1000.60
2019-06-08T08:23:03.594Z,1000.66
2019-06-08T08:23:59.650Z,1000.64
2019-06-08T08:25:02.297Z,1000.72
2019-06-08T08:26:01.293Z,1000.80
2019-06-08T08:26:59.755Z,1000.73
2019-06-08T08:27:59.059Z,1000.70
2019-06-08T08:28:59.714Z,1000.72
2019-06-08T08:29:59.756Z,1000.72
2019-06-08T08:30:58.561Z,1000.79
2019-06-08T08:31:58.793Z,1000.85
2019-06-08T08:32:57.127Z,1000.93
2019-06-08T08:33:58.891Z,1000.70
2019-06-08T08:34:59.233Z,1000.89
2019-06-08T08:35:59.798Z,1000.84
2019-06-08T08:37:01.794Z,1000.85
2019-06-08T08:38:01.193Z,1000.81
2019-06-08T08:39:00.457Z,1000.81
2019-06-08T08:39:59.669Z,1000.76
2019-06-08T08:40:59.345Z,1000.86
2019-06-08T08:42:02.415Z,1001.32
2019-06-08T08:42:58.698Z,1000.95
2019-06-08T08:43:58.969Z,1000.92
2019-06-08T08:44:59.336Z,1000.85
2019-06-08T08:45:59.140Z,1000.82
2019-06-08T08:46:56.995Z,1001.32
2019-06-08T08:48:16.031Z,1000.98
2019-06-08T08:49:06.906Z,1000.97
2019-06-08T08:49:59.119Z,1001.00
2019-06-08T08:50:56.951Z,1000.93
2019-06-08T08:51:56.182Z,1000.83
2019-06-08T08:52:58.916Z,1001.02
2019-06-08T08:54:01.459Z,1000.97
2019-06-08T08:54:59.331Z,1000.92
2019-06-08T08:56:01.280Z,1000.87
2019-06-08T08:57:01.065Z,1000.84
2019-06-08T08:57:59.031Z,1000.93
2019-06-08T08:58:59.171Z,1001.14
2019-06-08T09:00:01.101Z,1001.12
2019-06-08T09:00:59.440Z,1001.10
2019-06-08T09:01:56.865Z,1001.20
2019-06-08T09:03:13.166Z,1001.19
2019-06-08T09:04:01.155Z,1001.01
2019-06-08T09:04:59.674Z,1001.18
2019-06-08T09:06:00.552Z,1001.17
2019-06-08T09:07:02.355Z,1001.35
2019-06-08T09:07:58.771Z,1001.22
2019-06-08T09:08:59.536Z,1001.31
2019-06-08T09:10:00.479Z,1001.24
2019-06-08T09:10:59.704Z,1001.30
2019-06-08T09:12:00.899Z,1001.32
2019-06-08T09:12:59.985Z,1001.28
2019-06-08T09:14:01.417Z,1001.35
2019-06-08T09:14:59.701Z,1001.37
2019-06-08T09:15:55.833Z,1001.26
2019-06-08T09:16:57.855Z,1002.13
2019-06-08T09:17:56.482Z,1001.83
2019-06-08T09:18:55.843Z,1001.27
2019-06-08T09:19:58.176Z,1001.35
2019-06-08T09:20:56.615Z,1001.73
2019-06-08T09:21:58.974Z,1002.07
2019-06-08T09:23:03.851Z,1001.54
2019-06-08T09:23:58.815Z,1001.50
2019-06-08T09:24:56.889Z,1002.01
2019-06-08T09:26:00.438Z,1001.49
2019-06-08T09:27:00.076Z,1001.79
2019-06-08T09:27:57.125Z,1002.08
2019-06-08T09:28:56.205Z,1002.13
2019-06-08T09:29:57.464Z,1002.09
2019-06-08T09:30:56.730Z,1001.57
2019-06-08T09:31:58.145Z,1001.42
2019-06-08T09:32:57.175Z,1002.12
2019-06-08T09:33:59.512Z,1001.80
2019-06-08T09:34:59.601Z,1001.64
2019-06-08T09:35:59.923Z,1002.28
2019-06-08T09:36:59.649Z,1001.72
2019-06-08T09:37:59.447Z,1001.54
2019-06-08T09:38:59.663Z,1002.25
2019-06-08T09:39:58.512Z,1002.27
2019-06-08T09:40:57.451Z,1002.27
2019-06-08T09:41:58.188Z,1001.86
2019-06-08T09:43:05.378Z,1001.68
2019-06-08T09:43:58.171Z,1002.32
2019-06-08T09:44:55.595Z,1002.50
2019-06-08T09:45:55.421Z,1002.56
2019-06-08T09:46:56.367Z,1002.36
2019-06-08T09:47:55.482Z,1002.44
2019-06-08T09:48:58.384Z,1002.07
2019-06-08T09:49:55.439Z,1001.76
2019-06-08T09:50:55.172Z,1002.07
2019-06-08T09:51:56.500Z,1001.76
2019-06-08T09:53:10.123Z,1001.90
2019-06-08T09:54:00.616Z,1001.75
2019-06-08T09:54:59.276Z,1002.16
2019-06-08T09:55:57.608Z,1001.89
2019-06-08T09:56:55.801Z,1001.93
2019-06-08T09:57:59.298Z,1002.31
2019-06-08T09:58:58.065Z,1002.01
2019-06-08T09:59:57.178Z,1001.99
2019-06-08T10:00:57.199Z,1001.99
2019-06-08T10:01:55.616Z,1001.99
2019-06-08T10:02:56.840Z,1001.90
2019-06-08T10:03:56.131Z,1001.90
2019-06-08T10:04:58.887Z,1001.85
2019-06-08T10:05:56.166Z,1002.01
2019-06-08T10:06:56.202Z,1001.91
2019-06-08T10:07:56.959Z,1002.10
2019-06-08T10:08:56.240Z,1001.91
2019-06-08T10:09:56.835Z,1001.86
2019-06-08T10:10:56.561Z,1002.00
2019-06-08T10:11:56.222Z,1002.01
2019-06-08T10:12:56.949Z,1001.98
2019-06-08T10:13:57.057Z,1002.08
2019-06-08T10:14:56.623Z,1002.20
2019-06-08T10:15:56.092Z,1002.01
2019-06-08T10:16:56.278Z,1002.08
2019-06-08T10:17:54.935Z,1002.07
2019-06-08T10:18:55.024Z,1002.09
2019-06-08T10:19:57.904Z,1002.13
2019-06-08T10:21:00.667Z,1002.08
2019-06-08T10:21:54.867Z,1002.19
2019-06-08T10:22:54.890Z,1002.22
2019-06-08T10:23:54.859Z,1002.20
2019-06-08T10:24:55.490Z,1002.18
2019-06-08T10:25:54.885Z,1002.23
2019-06-08T10:26:55.182Z,1002.25
2019-06-08T10:27:55.131Z,1002.25
2019-06-08T10:28:55.322Z,1002.19
2019-06-08T10:29:55.197Z,1002.27
2019-06-08T10:30:55.408Z,1002.24
2019-06-08T10:31:55.184Z,1002.31
2019-06-08T10:32:56.270Z,1002.63
2019-06-08T10:33:56.205Z,1002.31
2019-06-08T10:34:55.650Z,1002.35
2019-06-08T10:35:55.703Z,1002.41
2019-06-08T10:36:57.995Z,1002.40
2019-06-08T10:37:56.549Z,1002.33
2019-06-08T10:38:56.711Z,1002.40
2019-06-08T10:39:55.772Z,1002.38
2019-06-08T10:40:58.744Z,1002.31
2019-06-08T10:41:57.596Z,1002.38
2019-06-08T10:42:54.492Z,1002.42
2019-06-08T10:43:54.516Z,1002.42
2019-06-08T10:44:54.522Z,1002.37
2019-06-08T10:45:54.503Z,1002.33
2019-06-08T10:46:54.580Z,1002.37
2019-06-08T10:47:54.702Z,1002.46
2019-06-08T10:48:54.599Z,1002.50
2019-06-08T10:49:54.571Z,1002.39
2019-06-08T10:50:54.471Z,1002.41
2019-06-08T10:51:54.534Z,1002.41
2019-06-08T10:52:54.465Z,1002.58
2019-06-08T10:53:54.423Z,1002.40
2019-06-08T10:54:54.386Z,1002.38
2019-06-08T10:55:54.402Z,1002.34
2019-06-08T10:56:54.486Z,1002.47
2019-06-08T10:57:54.905Z,1002.42
2019-06-08T10:58:54.955Z,1002.64
2019-06-08T10:59:54.454Z,1002.44
2019-06-08T11:00:55.272Z,1002.48
2019-06-08T11:01:54.652Z,1002.41
2019-06-08T11:02:54.770Z,1002.47
2019-06-08T11:03:54.325Z,1002.45
2019-06-08T11:04:54.458Z,1002.66
2019-06-08T11:05:54.561Z,1002.63
2019-06-08T11:06:54.315Z,1002.57
2019-06-08T11:07:54.334Z,1002.59
2019-06-08T11:08:55.044Z,1002.56
2019-06-08T11:09:54.258Z,1002.59
2019-06-08T11:10:54.328Z,1002.66
2019-06-08T11:11:54.188Z,1002.58
2019-06-08T11:12:54.263Z,1002.45
2019-06-08T11:13:54.247Z,1002.44
2019-06-08T11:14:54.182Z,1002.48
2019-06-08T11:15:54.155Z,1002.49
2019-06-08T11:16:54.562Z,1002.54
2019-06-08T11:17:54.214Z,1002.51
2019-06-08T11:18:54.359Z,1002.49
2019-06-08T11:19:54.156Z,1002.55
2019-06-08T11:20:57.978Z,1002.57
2019-06-08T11:21:54.141Z,1002.65
2019-06-08T11:22:54.652Z,1002.71
2019-06-08T11:24:07.617Z,1003.16
2019-06-08T11:24:55.167Z,1002.73
2019-06-08T11:25:54.240Z,1002.61
2019-06-08T11:26:54.230Z,1002.62
2019-06-08T11:27:55.087Z,1002.74
2019-06-08T11:28:54.126Z,1002.59
2019-06-08T11:29:54.101Z,1002.63
2019-06-08T11:30:54.006Z,1002.67
2019-06-08T11:31:54.123Z,1002.57
2019-06-08T11:32:54.339Z,1002.61
2019-06-08T11:33:54.057Z,1002.65
2019-06-08T11:34:54.093Z,1002.60
2019-06-08T11:35:53.969Z,1002.71
2019-06-08T11:36:54.031Z,1002.79
2019-06-08T11:37:54.625Z,1002.87
2019-06-08T11:38:54.161Z,1003.27
2019-06-08T11:39:54.076Z,1003.09
2019-06-08T11:40:53.948Z,1002.92
2019-06-08T11:41:54.263Z,1002.86
2019-06-08T11:42:53.859Z,1002.76
2019-06-08T11:43:53.890Z,1002.83
2019-06-08T11:44:53.860Z,1002.80
2019-06-08T11:45:53.916Z,1002.74
2019-06-08T11:46:53.954Z,1003.40
2019-06-08T11:47:53.865Z,1002.95
2019-06-08T11:48:54.539Z,1002.98
2019-06-08T11:49:53.943Z,1002.73
2019-06-08T11:50:53.893Z,1002.85
2019-06-08T11:51:54.015Z,1002.65
2019-06-08T11:52:53.744Z,1002.71
2019-06-08T11:53:53.734Z,1002.80
2019-06-08T11:54:53.819Z,1002.87
2019-06-08T11:55:53.804Z,1002.76
2019-06-08T11:56:53.757Z,1002.76
2019-06-08T11:57:53.711Z,1002.79
2019-06-08T11:58:53.772Z,1002.90
2019-06-08T11:59:53.705Z,1002.83
2019-06-08T12:00:53.795Z,1002.98
2019-06-08T12:01:53.642Z,1002.99
2019-06-08T12:02:53.640Z,1003.01
2019-06-08T12:03:53.696Z,1002.92
2019-06-08T12:04:53.676Z,1002.95
2019-06-08T12:05:53.685Z,1003.10
2019-06-08T12:06:53.786Z,1003.06
2019-06-08T12:07:53.629Z,1003.15
2019-06-08T12:08:53.616Z,1002.97
2019-06-08T12:09:53.834Z,1002.93
2019-06-08T12:10:53.588Z,1002.98
2019-06-08T12:11:53.619Z,1003.06
2019-06-08T12:12:53.537Z,1002.99
2019-06-08T12:13:53.648Z,1003.05
2019-06-08T12:14:53.541Z,1002.92
2019-06-08T12:15:53.492Z,1003.03
2019-06-08T12:16:53.804Z,1003.09
2019-06-08T12:17:53.727Z,1003.04
2019-06-08T12:18:53.471Z,1002.93